Tiempo atmosférico en la estación meteorológica de Valencia De Don Juan, León (788 m.)



Fecha
DESCASC
Temp. máxima en grados centígrados (hora)
DESCASC
Temp. mínima en grados centígrados (hora)
DESCASC
Temp. media en grados centígrados
DESCASC
Racha de viento máxima en m/sg (hora)
DESCASC
Velocidad máxima media en intervalos de 10 minutos(hora)
DESCASC
Precipitaciones diarias en mm
DESCASC
Precipitaciones de 00:00 a 06:00 en mm
DESCASC
Precipitaciones de 06:00 a 12:00 en mm
DESCASC
Precipitaciones de 12:00 a 18:00 en mm
DESCASC
Precipitaciones de 18:00 a 24:00 en mm
DESCASC
31-03-2020 8.5 (15:10) -1.7 (04:30) 3.4 16.94 (14:00) 13.61 (14:00) 0.2 0 0 0 0.2
30-03-2020 6.9 (15:10) 0.3 (23:59) 3.6 13.61 (20:30) 10.56 (20:30) 0 0 0 0 0
29-03-2020 16.7 (18:20) 1.3 (00:00) 9 15 (19:50) 11.67 (19:50) 0 0 0 0 0
28-03-2020 15.4 (16:30) -1.8 (-00:0) 6.8 7.5 (00:20) 6.11 (00:20) 0 0 0 0 0
27-03-2020 11.9 (16:40) -1.5 (-00:0) 5.2 12.5 (10:50) 9.44 (10:50) 0 0 0 0 0
26-03-2020 16.3 (16:50) -0.3 (00:00) 8 10 (19:00) 7.78 (18:50) 0 0 0 0 0
25-03-2020 19.4 (16:00) 2.2 (00:00) 10.8 11.67 (17:30) 8.61 (18:00) 0 0 0 0 0
24-03-2020 16.4 (16:30) 4.6 (00:00) 10.5 11.39 (12:20) 9.17 (10:30) 0 0 0 0 0
23-03-2020 15.1 (17:50) 1 (00:00) 8.1 10 (21:40) 8.06 (21:40) 0 0 0 0 0
22-03-2020 16.2 (15:40) 5.7 (07:50) 11 9.72 (16:00) 6.67 (16:10) 0.8 0 0 0 0.8
21-03-2020 13 (15:20) 6.4 (00:00) 9.7 9.72 (22:30) 7.22 (06:30) 0.2 0.2 0 0 0
20-03-2020 13.5 (15:00) 6.9 (00:00) 10.2 10 (09:30) 8.33 (09:30) 1.2 0.2 0 1 0
19-03-2020 15.5 (13:10) 5.2 (00:00) 10.3 6.67 (22:20) 5.83 (22:10) 0 0 0 0 0
18-03-2020 17.2 (17:10) 4.2 (00:00) 10.7 6.67 (14:30) 4.17 (10:40) 0 0 0 0 0
17-03-2020 13.9 (15:30) 1.4 (00:00) 7.6 16.11 (13:20) 12.78 (13:20) 0 0 0 0 0
16-03-2020 9.6 (15:30) 0.3 (00:00) 5 18.61 (15:50) 15 (15:50) 2 1.8 0.2 0 0
15-03-2020 17.4 (14:20) 0.8 (00:00) 9.1 16.94 (21:30) 11.94 (21:30) 1.8 0 0 0 1.8
14-03-2020 16.8 (16:40) -0.1 (00:00) 8.3 5.83 (15:40) 5.28 (22:50) 0 0 0 0 0
13-03-2020 15.1 (17:30) 5 (23:40) 10.1 10.28 (09:20) 8.06 (09:20) 0 0 0 0 0
12-03-2020 19.9 (14:40) 6 (00:00) 12.9 11.67 (19:10) 8.89 (19:40) 0 0 0 0 0
11-03-2020 22.3 (18:00) 3.1 (00:00) 12.7 9.44 (18:40) 6.11 (18:40) 0 0 0 0 0
10-03-2020 20.7 (18:00) 3.8 (00:00) 12.3 5.83 (15:30) 3.89 (19:50) 0 0 0 0 0
09-03-2020 16.3 (17:00) 2.7 (00:00) 9.5 10.28 (00:30) 6.94 (00:40) 0 0 0 0 0
08-03-2020 14.5 (16:30) 0 (00:00) 7.3 14.44 (16:30) 9.72 (16:30) 0 0 0 0 0
07-03-2020 14.4 (16:50) 2.8 (00:00) 8.6 7.78 (17:00) 5.28 (19:40) 0 0 0 0 0
06-03-2020 9.6 (15:00) 3.1 (00:00) 6.4 18.06 (14:50) 12.78 (13:50) 0 0 0 0 0
05-03-2020 12.2 (15:10) 3.8 (00:00) 8 17.5 (12:50) 12.5 (16:10) 1.4 0 1.4 0 0
04-03-2020 15.6 (15:30) 9.1 (00:00) 12.4 12.78 (18:00) 8.89 (16:00) 0 0 0 0 0

Gráficas

Temp. máximas Temp. mínimas Temp. medias Precipitaciones Rachas de viento máximas Velocidades máximas media en intervalos de 10 minutos

Datos horarios

Fecha y hora oficial Temperatura (ºC) Velocidad del viento (km/h) Dirección del viento Racha (km/h) Dirección de racha Precipitación (mm) Presión (hPa) Tendencia (hPa) Humedad (%)
2020-04-02 23:00:00 7.4 15 Nordeste 20 Nordeste 0 -- -- 68
2020-04-02 22:00:00 8.4 9 Este 26 Norte 0 -- -- 72
2020-04-02 21:00:00 9.9 15 Norte 24 Norte 0 -- -- 62
2020-04-02 20:00:00 11.6 17 Norte 22 Norte 0 -- -- 57
2020-04-02 19:00:00 12.4 8 Nordeste 19 Este 0 -- -- 65
2020-04-02 18:00:00 11.9 11 Este 27 Sudeste 0 -- -- 68
2020-04-02 17:00:00 11.3 18 Sudeste 27 Este 0 -- -- 73
2020-04-02 16:00:00 12.4 8 Nordeste 22 Nordeste 0 -- -- 57
2020-04-02 15:00:00 10.8 15 Nordeste 29 Nordeste 0.2 -- -- 68
2020-04-02 14:00:00 10.9 15 Norte 24 Norte 0 -- -- 71
2020-04-02 13:00:00 10.7 14 Nordeste 22 Nordeste 0.2 -- -- 72
2020-04-02 12:00:00 9.4 14 Nordeste 20 Norte 0 -- -- 83
2020-04-02 11:00:00 8.1 11 Norte 17 Norte 0 -- -- 90
2020-04-02 10:00:00 7.3 10 Norte 14 Norte 0 -- -- 95
2020-04-02 09:00:00 6.4 7 Norte 11 Norte 0 -- -- 95
2020-04-02 08:00:00 6.2 9 Norte 11 Norte 0 -- -- 94
2020-04-02 07:00:00 6.3 5 Norte 9 Nordeste 0 -- -- 94
2020-04-02 06:00:00 6.1 8 Nordeste 12 Nordeste 0.2 -- -- 94
2020-04-02 05:00:00 6.1 8 Nordeste 19 Nordeste 1.2 -- -- 93
2020-04-02 04:00:00 6.2 10 Nordeste 15 Nordeste 1 -- -- 94
2020-04-02 03:00:00 6.1 9 Norte 12 Norte 0 -- -- 93
2020-04-02 02:00:00 6.1 10 Norte 13 Norte 0.2 -- -- 93
2020-04-02 01:00:00 6.1 10 Norte 19 Nordeste 0.2 -- -- 91
2020-04-02 00:00:00 6.5 12 Nordeste 29 Nordeste 0 -- -- 91
2020-04-01 23:00:00 7 20 Nordeste 32 Nordeste 0 -- -- 88
2020-04-01 22:00:00 7.2 8 Norte 11 Norte 0.2 -- -- 91
2020-04-01 21:00:00 7.7 10 Sudoeste 37 Sur 1 -- -- 89
2020-04-01 20:00:00 -- -- -- -- -- -- -- -- --
2020-04-01 19:00:00 -- -- -- -- -- -- -- -- --
2020-04-01 18:00:00 -- -- -- -- -- -- -- -- --
2020-04-01 17:00:00 12.4 18 Este 27 Este 0 -- -- 58
2020-04-01 16:00:00 12.5 16 Nordeste 26 Este 0 -- -- 61
2020-04-01 15:00:00 11.3 15 Este 31 Nordeste 0 -- -- 63
2020-04-01 14:00:00 11.3 18 Este 26 Este 0 -- -- 70
2020-04-01 13:00:00 9.4 14 Nordeste 21 Nordeste 0 -- -- 77
2020-04-01 12:00:00 8.6 12 Nordeste 16 Nordeste 0 -- -- 82
2020-04-01 11:00:00 6.8 8 Sudeste 22 Sudeste 0 -- -- 88
2020-04-01 10:00:00 6 16 Sudeste 24 Sudeste 0 -- -- 90
2020-04-01 09:00:00 5.1 17 Sudeste 26 Este 0 -- -- 92
2020-04-01 08:00:00 4.4 19 Este 31 Este 0 -- -- 91
2020-04-01 07:00:00 4.6 22 Este 30 Este 0 -- -- 91
2020-04-01 06:00:00 5.2 22 Este 34 Este 0 -- -- 91
2020-04-01 05:00:00 5.2 26 Este 36 Este 0 -- -- 91
2020-04-01 04:00:00 5.3 28 Este 40 Este 1.2 -- -- 90
2020-04-01 03:00:00 5.1 24 Este 44 Este 2.6 -- -- 90
2020-04-01 02:00:00 5.3 34 Este 49 Este 0.6 -- -- 88
2020-04-01 01:00:00 5.9 38 Este 50 Este 0 -- -- 80
2020-04-01 00:00:00 5.9 39 Este 54 Este 0 -- -- 80
2020-03-31 23:00:00 5.9 39 Este 50 Este 0 -- -- 81
2020-03-31 22:00:00 6 35 Este 49 Este 0 -- -- 81
2020-03-31 21:00:00 6.5 34 Este 51 Este 0 -- -- 80
2020-03-31 20:00:00 6.7 37 Este 52 Este 0.2 -- -- 79
2020-03-31 19:00:00 7 39 Este 55 Este 0 -- -- 77
2020-03-31 18:00:00 6.4 45 Este 58 Este 0 -- -- 78
2020-03-31 17:00:00 6.6 40 Este 59 Este 0 -- -- 75
2020-03-31 16:00:00 8.1 45 Este 58 Este 0 -- -- 61
2020-03-31 15:00:00 8.4 43 Este 60 Este 0 -- -- 58
2020-03-31 14:00:00 7.7 49 Este 61 Este 0 -- -- 57
2020-03-31 13:00:00 7 37 Este 54 Este 0 -- -- 56
2020-03-31 12:00:00 5.9 40 Este 55 Este 0 -- -- 57
2020-03-31 11:00:00 3.4 40 Este 55 Este 0 -- -- 61
2020-03-31 10:00:00 1.8 37 Este 49 Este 0 -- -- 63
2020-03-31 09:00:00 0.8 32 Este 47 Este 0 -- -- 64
2020-03-31 08:00:00 0.7 30 Este 45 Este 0 -- -- 63
2020-03-31 07:00:00 0.4 30 Nordeste 46 Este 0 -- -- 66
2020-03-31 06:00:00 0.1 25 Nordeste 36 Este 0 -- -- 68
2020-03-31 05:00:00 -1.6 12 Nordeste 16 Nordeste 0 -- -- 80
2020-03-31 04:00:00 -1.3 12 Nordeste 20 Nordeste 0 -- -- 79
2020-03-31 03:00:00 -0.5 16 Nordeste 23 Nordeste 0 -- -- 75
2020-03-31 02:00:00 -0.2 14 Nordeste 22 Este 0 -- -- 73
2020-03-31 01:00:00 0 16 Nordeste 28 Este 0 -- -- 71
2020-03-31 00:00:00 0.3 19 Este 31 Este 0 -- -- 67
2020-03-30 23:00:00 1 23 Este 29 Este 0 -- -- 61
2020-03-30 22:00:00 1.6 15 Este 37 Nordeste 0 -- -- 54
2020-03-30 21:00:00 3.3 31 Nordeste 49 Nordeste 0 -- -- 47
2020-03-30 20:00:00 5.5 28 Nordeste 38 Nordeste 0 -- -- 38
2020-03-30 19:00:00 6.1 26 Nordeste 33 Nordeste 0 -- -- 34
2020-03-30 18:00:00 6.1 23 Nordeste 39 Este 0 -- -- 38
2020-03-30 17:00:00 6.8 15 Nordeste 32 Este 0 -- -- 38
2020-03-30 16:00:00 6.5 19 Este 33 Este 0 -- -- 40
2020-03-30 15:00:00 6.8 16 Nordeste 32 Este 0 -- -- 38
2020-03-30 14:00:00 5.5 18 Sudeste 40 Sudeste 0 -- -- 49
2020-03-30 13:00:00 4.7 12 Sudeste 22 Sudeste 0 -- -- 52
2020-03-30 12:00:00 4.1 13 Este 25 Este 0 -- -- 56
2020-03-30 11:00:00 3.2 15 Este 23 Este 0 -- -- 62
2020-03-30 10:00:00 2.9 19 Este 30 Este 0 -- -- 61
2020-03-30 09:00:00 2.7 18 Este 27 Este 0 -- -- 61
2020-03-30 08:00:00 2.8 15 Nordeste 28 Este 0 -- -- 62
2020-03-30 07:00:00 3.6 14 Nordeste 32 Este 0 -- -- 61
2020-03-30 06:00:00 4 25 Este 33 Este 0 -- -- 58
2020-03-30 05:00:00 5.3 19 Nordeste 30 Nordeste 0 -- -- 61
2020-03-30 04:00:00 5.7 20 Nordeste 27 Nordeste 0 -- -- 61
2020-03-30 03:00:00 5.6 15 Este 21 Este 0 -- -- 67
2020-03-30 02:00:00 5.7 14 Este 21 Este 0 -- -- 72
2020-03-30 01:00:00 4.9 13 Este 19 Este 0 -- -- 76
2020-03-30 00:00:00 5.8 11 Este 24 Nordeste 0 -- -- 67
2020-03-29 23:00:00 7.5 21 Nordeste 29 Nordeste 0 -- -- 58
2020-03-29 22:00:00 8.8 26 Este 38 Este 0 -- -- 53
2020-03-29 21:00:00 10.4 30 Este 53 Este 0 -- -- 52
2020-03-29 20:00:00 12.9 40 Este 54 Este 0 -- -- 37
2020-03-29 19:00:00 16.7 9 Sudeste 21 Este 0 -- -- 29
2020-03-29 18:00:00 16.6 8 Sudeste 15 Sur 0 -- -- 29
2020-03-29 17:00:00 16.5 9 Sur 18 Sur 0 -- -- 30
2020-03-29 16:00:00 15.8 5 Sudoeste 17 Sudoeste 0 -- -- 35
2020-03-29 15:00:00 14.6 10 Sudoeste 16 Sudoeste 0 -- -- 35
2020-03-29 14:00:00 13.7 6 Este 15 Oeste 0 -- -- 38
2020-03-29 13:00:00 12.4 7 Este 16 Sudeste 0 -- -- 39
2020-03-29 12:00:00 10.8 9 Este 15 Este 0 -- -- 44
2020-03-29 11:00:00 7.4 4 Norte 10 Norte 0 -- -- 68
2020-03-29 10:00:00 4 7 Nordeste 9 Norte 0 -- -- 77
2020-03-29 09:00:00 1.7 6 Nordeste 8 Nordeste 0 -- -- 80
2020-03-29 08:00:00 1.4 5 Norte 6 Nordeste 0 -- -- 80
2020-03-29 07:00:00 1.5 4 Nordeste 5 Nordeste 0 -- -- 78
2020-03-29 06:00:00 1.6 3 Este 12 Nordeste 0 -- -- 76
2020-03-29 05:00:00 2.3 10 Este 12 Nordeste 0 -- -- 74
2020-03-29 03:00:00 2.5 8 Norte 10 Norte 0 -- -- 70
2020-03-29 01:00:00 4.8 4 Este 15 Nordeste 0 -- -- 64
2020-03-29 00:00:00 6 10 Nordeste 13 Nordeste 0 -- -- 55
2020-03-28 23:00:00 9.2 0 Calma 4 Sur 0 -- -- 47
2020-03-28 22:00:00 10.7 3 Sur 5 Sur 0 -- -- 41
2020-03-28 21:00:00 10.5 4 Sur 8 Sur 0 -- -- 43
2020-03-28 20:00:00 11.4 5 Sur 10 Sudeste 0 -- -- 42
2020-03-28 19:00:00 13.6 8 Sudeste 14 Sur 0 -- -- 35
2020-03-28 18:00:00 14.6 8 Sur 13 Sur 0 -- -- 29
2020-03-28 17:00:00 14.9 5 Sur 27 Sudeste 0 -- -- 26
2020-03-28 16:00:00 14.9 8 Sudoeste 17 Sudeste 0 -- -- 26
2020-03-28 15:00:00 14.6 6 Sur 21 Sudoeste 0 -- -- 29
2020-03-28 14:00:00 14 4 Oeste 21 Sudoeste 0 -- -- 32
2020-03-28 13:00:00 13.4 8 Sudeste 16 Sudeste 0 -- -- 34
2020-03-28 12:00:00 11.6 6 Nordeste 12 Norte 0 -- -- 37
2020-03-28 11:00:00 9.4 6 Nordeste 13 Este 0 -- -- 52
2020-03-28 10:00:00 6 7 Nordeste 12 Nordeste 0 -- -- 63
2020-03-28 09:00:00 2.3 9 Norte 12 Norte 0 -- -- 70
2020-03-28 08:00:00 -0.6 8 Nordeste 9 Nordeste 0 -- -- 79
2020-03-28 07:00:00 -1.8 7 Norte 10 Norte 0 -- -- 80
2020-03-28 06:00:00 -0.7 6 Norte 13 Este 0 -- -- 78
2020-03-28 05:00:00 -0.4 8 Nordeste 13 Este 0 -- -- 80
2020-03-28 04:00:00 1 10 Nordeste 13 Nordeste 0 -- -- 72
2020-03-28 03:00:00 1.4 8 Norte 13 Norte 0 -- -- 69
2020-03-28 02:00:00 1.8 5 Noroeste 22 Este 0 -- -- 64
2020-03-28 01:00:00 2.7 11 Norte 27 Este 0 -- -- 65
2020-03-28 00:00:00 5.4 21 Este 32 Este 0 -- -- 51
2020-03-27 23:00:00 6.9 26 Este 30 Este 0 -- -- 44
2020-03-27 22:00:00 6.7 22 Este 23 Este 0 -- -- 45
2020-03-27 21:00:00 6.2 19 Este 21 Este 0 -- -- 46
2020-03-27 20:00:00 8.9 13 Este 16 Este 0 -- -- 36
2020-03-27 19:00:00 11.1 10 Este 24 Este 0 -- -- 32
2020-03-27 18:00:00 11.7 12 Este 29 Este 0 -- -- 29
2020-03-27 17:00:00 11.7 18 Sudeste 32 Este 0 -- -- 31
2020-03-27 16:00:00 11.7 27 Este 40 Este 0 -- -- 32
2020-03-27 15:00:00 11.2 23 Este 36 Sudeste 0 -- -- 32
2020-03-27 14:00:00 10 23 Este 37 Este 0 -- -- 36
2020-03-27 13:00:00 8.7 24 Este 40 Este 0 -- -- 36
2020-03-27 12:00:00 7.4 26 Este 42 Este 0 -- -- 43
2020-03-27 11:00:00 5.8 33 Este 45 Este 0 -- -- 50
2020-03-27 10:00:00 4.4 25 Nordeste 34 Nordeste 0 -- -- 55
2020-03-27 09:00:00 0.8 15 Norte 19 Norte 0 -- -- 77
2020-03-27 08:00:00 -0.7 14 Nordeste 20 Este 0 -- -- 79
2020-03-27 07:00:00 -0.9 19 Este 31 Este 0 -- -- 77
2020-03-27 06:00:00 -0.4 23 Este 29 Este 0 -- -- 76
2020-03-27 05:00:00 -0.1 25 Este 31 Este 0 -- -- 78
2020-03-27 04:00:00 0.1 23 Sudeste 34 Este 0 -- -- 80
2020-03-27 03:00:00 1 23 Sudeste 33 Este 0 -- -- 75
2020-03-27 02:00:00 1.6 22 Este 30 Este 0 -- -- 75
2020-03-27 01:00:00 1.9 15 Sudeste 18 Sudeste 0 -- -- 78
2020-03-27 00:00:00 2.9 12 Sudeste 18 Nordeste 0 -- -- 72
2020-03-26 23:00:00 4.8 8 Este 26 Norte 0 -- -- 59
2020-03-26 22:00:00 5.7 15 Nordeste 22 Nordeste 0 -- -- 53
2020-03-26 21:00:00 7.3 15 Nordeste 28 Este 0 -- -- 54
2020-03-26 20:00:00 9.2 24 Este 31 Este 0 -- -- 49
2020-03-26 19:00:00 12.7 27 Nordeste 36 Nordeste 0 -- -- 34
2020-03-26 18:00:00 14.7 26 Norte 35 Norte 0 -- -- 27
2020-03-26 17:00:00 16.1 19 Norte 28 Norte 0 -- -- 25
2020-03-26 16:00:00 15.2 10 Norte 24 Norte 0 -- -- 23
2020-03-26 15:00:00 13.8 5 Nordeste 17 Nordeste 0 -- -- 27
2020-03-26 14:00:00 12.9 8 Este 15 Nordeste 0 -- -- 27
2020-03-26 13:00:00 10.7 4 Este 13 Sudeste 0 -- -- 33
2020-03-26 12:00:00 9.2 4 Sudoeste 14 Sudoeste 0 -- -- 40
2020-03-26 11:00:00 7.1 6 Sudoeste 11 Sur 0 -- -- 52
2020-03-26 10:00:00 4.4 3 Norte 10 Norte 0 -- -- 70
2020-03-26 09:00:00 1.3 5 Norte 8 Norte 0 -- -- 79
2020-03-26 08:00:00 0.6 4 Sudoeste 13 Sudeste 0 -- -- 81
2020-03-26 07:00:00 0.4 6 Sur 32 Sudeste 0 -- -- 82
2020-03-26 06:00:00 0.9 22 Sudeste 29 Sudeste 0 -- -- 81
2020-03-26 05:00:00 1.3 23 Sudeste 30 Sudeste 0 -- -- 80
2020-03-26 04:00:00 1.7 23 Sudeste 28 Sudeste 0 -- -- 72
2020-03-26 03:00:00 3.8 9 Nordeste 10 Nordeste 0 -- -- 43
2020-03-26 02:00:00 3.4 5 Noroeste 15 Norte 0 -- -- 48
2020-03-26 01:00:00 4.5 10 Nordeste 14 Nordeste 0 -- -- 46
2020-03-26 00:00:00 4.4 14 Nordeste 17 Nordeste 0 -- -- 49
2020-03-25 23:00:00 6.4 13 Norte 21 Norte 0 -- -- 39
2020-03-25 22:00:00 8.1 18 Norte 34 Norte 0 -- -- 36
2020-03-25 21:00:00 10.1 20 Norte 29 Norte 0 -- -- 25
2020-03-25 20:00:00 12.2 19 Norte 36 Norte 0 -- -- 28
2020-03-25 19:00:00 15.5 28 Norte 40 Norte 0 -- -- 21
2020-03-25 18:00:00 17.5 31 Norte 42 Norte 0 -- -- 19
2020-03-25 17:00:00 18.9 24 Norte 42 Norte 0 -- -- 17
2020-03-25 16:00:00 19.4 17 Noroeste 34 Norte 0 -- -- 19
2020-03-25 15:00:00 18.1 13 Nordeste 30 Norte 0 -- -- 24
2020-03-25 14:00:00 17.9 15 Norte 32 Nordeste 0 -- -- 26
2020-03-25 13:00:00 16.3 6 Sur 20 Nordeste 0 -- -- 44
2020-03-25 12:00:00 14 9 Oeste 19 Oeste 0 -- -- 54
2020-03-25 11:00:00 11.1 10 Oeste 18 Oeste 0 -- -- 67
2020-03-25 10:00:00 8.1 3 Oeste 6 Noroeste 0 -- -- 79
2020-03-25 09:00:00 4.6 3 Noroeste 6 Norte 0 -- -- 87
2020-03-25 08:00:00 3.3 4 Nordeste 9 Norte 0 -- -- 90
2020-03-25 07:00:00 2.4 7 Norte 8 Norte 0 -- -- 89
2020-03-25 06:00:00 3.5 6 Nordeste 11 Nordeste 0 -- -- 87
2020-03-25 05:00:00 3.8 8 Nordeste 11 Este 0 -- -- 86
2020-03-25 04:00:00 4.1 6 Nordeste 10 Nordeste 0 -- -- 84
2020-03-25 03:00:00 4.7 9 Norte 20 Este 0 -- -- 80
2020-03-25 02:00:00 7.5 17 Este 20 Este 0 -- -- 72
2020-03-25 01:00:00 6.8 9 Nordeste 20 Este 0 -- -- 74
2020-03-25 00:00:00 9.8 19 Este 25 Este 0 -- -- 62
2020-03-24 23:00:00 10 19 Sudeste 24 Este 0 -- -- 62
2020-03-24 22:00:00 10.3 21 Este 26 Este 0 -- -- 62
2020-03-24 21:00:00 10.9 21 Este 23 Este 0 -- -- 61
2020-03-24 20:00:00 12.6 14 Este 22 Sudeste 0 -- -- 53
2020-03-24 19:00:00 14.7 16 Sudeste 26 Sudeste 0 -- -- 45
2020-03-24 18:00:00 15.7 14 Este 26 Este 0 -- -- 42
2020-03-24 17:00:00 16 11 Este 34 Este 0 -- -- 42
2020-03-24 16:00:00 16.3 18 Este 34 Este 0 -- -- 41
2020-03-24 15:00:00 15.4 18 Nordeste 39 Este 0 -- -- 46
2020-03-24 14:00:00 14.4 20 Este 32 Este 0 -- -- 48
2020-03-24 13:00:00 14.1 23 Este 41 Este 0 -- -- 53
2020-03-24 12:00:00 13.1 26 Este 40 Este 0 -- -- 57
2020-03-24 11:00:00 11.8 30 Este 41 Este 0 -- -- 64
2020-03-24 10:00:00 10.3 28 Este 39 Este 0 -- -- 72
2020-03-24 09:00:00 8.5 21 Este 31 Este 0 -- -- 80
2020-03-24 08:00:00 6.6 21 Este 36 Este 0 -- -- 85
2020-03-24 07:00:00 5.5 18 Este 27 Este 0 -- -- 89
2020-03-24 06:00:00 4.8 16 Nordeste 22 Este 0 -- -- 90
2020-03-24 05:00:00 4.8 16 Este 20 Este 0 -- -- 90
2020-03-24 04:00:00 5 14 Nordeste 18 Nordeste 0 -- -- 89
2020-03-24 03:00:00 6 12 Nordeste 21 Nordeste 0 -- -- 86
2020-03-24 02:00:00 6.9 9 Norte 34 Este 0 -- -- 83
2020-03-24 01:00:00 8.1 31 Este 39 Este 0 -- -- 80
2020-03-24 00:00:00 8.1 26 Este 33 Este 0 -- -- 78
2020-03-23 23:00:00 8.7 24 Este 31 Este 0 -- -- 75
2020-03-23 22:00:00 10.1 24 Este 36 Este 0 -- -- 69
2020-03-23 21:00:00 11.7 21 Este 28 Este 0 -- -- 63
2020-03-23 20:00:00 12.1 18 Este 26 Este 0 -- -- 60
2020-03-23 19:00:00 12.8 9 Sudeste 23 Sudeste 0 -- -- 59
2020-03-23 18:00:00 14.7 21 Este 34 Este 0 -- -- 50
2020-03-23 17:00:00 14.5 20 Este 29 Este 0 -- -- 48
2020-03-23 16:00:00 14.3 17 Este 30 Este 0 -- -- 47
2020-03-23 15:00:00 13.8 20 Este 31 Este 0 -- -- 50
2020-03-23 14:00:00 13.9 21 Sudeste 32 Este 0 -- -- 54
2020-03-23 13:00:00 13.6 20 Este 31 Este 0 -- -- 53
2020-03-23 12:00:00 12.7 21 Este 29 Este 0 -- -- 60
2020-03-23 11:00:00 10.8 21 Este 30 Este 0 -- -- 67
2020-03-23 10:00:00 8.7 13 Nordeste 22 Este 0 -- -- 78
2020-03-23 09:00:00 4.3 10 Norte 14 Norte 0 -- -- 89
2020-03-23 08:00:00 1.4 6 Norte 13 Norte 0 -- -- 90
2020-03-23 07:00:00 1.2 11 Norte 15 Norte 0 -- -- 89
2020-03-23 06:00:00 1.6 8 Norte 12 Norte 0 -- -- 88
2020-03-23 05:00:00 1.9 4 Norte 12 Norte 0 -- -- 87
2020-03-23 04:00:00 2.9 6 Norte 13 Nordeste 0 -- -- 84
2020-03-23 03:00:00 3.2 6 Norte 17 Norte 0 -- -- 85
2020-03-23 02:00:00 4 8 Norte 12 Norte 0 -- -- 82
2020-03-23 01:00:00 5.4 8 Norte 15 Nordeste 0 -- -- 81
2020-03-23 00:00:00 6.1 14 Nordeste 21 Este 0 -- -- 80
2020-03-22 23:00:00 7.6 18 Este 23 Este 0 -- -- 76
2020-03-22 22:00:00 9.5 21 Este 27 Este 0 -- -- 72
2020-03-22 21:00:00 9.1 14 Sudeste 20 Sudeste 0 -- -- 80
2020-03-22 20:00:00 11.3 14 Este 29 Nordeste 0.8 -- -- 72
2020-03-22 19:00:00 14 12 Norte 20 Norte 0 -- -- 54
2020-03-22 18:00:00 14.7 10 Norte 18 Noroeste 0 -- -- 53
2020-03-22 17:00:00 15 9 Noroeste 31 Noroeste 0 -- -- 56
2020-03-22 16:00:00 14.5 18 Nordeste 35 Norte 0 -- -- 54
2020-03-22 15:00:00 15.9 12 Sudeste 28 Sudeste 0 -- -- 47
2020-03-22 14:00:00 14.7 15 Sudeste 26 Este 0 -- -- 54
2020-03-22 13:00:00 13.3 11 Este 24 Sudeste 0 -- -- 63
2020-03-22 12:00:00 12.5 15 Este 24 Este 0 -- -- 66
2020-03-22 11:00:00 11.4 14 Nordeste 20 Nordeste 0 -- -- 75
2020-03-22 10:00:00 9.3 9 Norte 17 Nordeste 0 -- -- 85
2020-03-22 09:00:00 6.9 10 Nordeste 13 Nordeste 0 -- -- 95
2020-03-22 08:00:00 5.8 7 Nordeste 9 Este 0 -- -- 94
2020-03-22 07:00:00 5.8 6 Nordeste 10 Norte 0 -- -- 93
2020-03-22 06:00:00 7.2 2 Norte 7 Norte 0 -- -- 92
2020-03-22 05:00:00 7.3 0 Calma 5 Este 0 -- -- 92
2020-03-22 04:00:00 7.4 3 Sudeste 9 Sur 0 -- -- 91
2020-03-22 03:00:00 7.5 4 Este 6 Sudoeste 0 -- -- 89
2020-03-22 02:00:00 7.8 5 Sur 13 Sur 0 -- -- 90
2020-03-22 01:00:00 7.6 10 Sur 13 Sur 0 -- -- 90
2020-03-22 00:00:00 7.9 10 Sur 18 Sur 0 -- -- 85
2020-03-21 23:00:00 8.9 9 Sudoeste 35 Sudeste 0 -- -- 85
2020-03-21 22:00:00 9 6 Sudoeste 10 Sudoeste 0 -- -- 83
2020-03-21 21:00:00 9.3 9 Sudoeste 11 Sudoeste 0 -- -- 80
2020-03-21 20:00:00 10.1 8 Sudoeste 13 Sudoeste 0 -- -- 78
2020-03-21 19:00:00 11.8 8 Oeste 17 Oeste 0 -- -- 71
2020-03-21 18:00:00 12.3 10 Sudoeste 18 Sudoeste 0 -- -- 69
2020-03-21 17:00:00 12.4 3 Sudoeste 15 Oeste 0 -- -- 68
2020-03-21 16:00:00 12.4 13 Sudoeste 21 Sudoeste 0 -- -- 70
2020-03-21 15:00:00 12.3 6 Sudeste 14 Sudeste 0 -- -- 66
2020-03-21 14:00:00 12 10 Sudeste 17 Sudeste 0 -- -- 68
2020-03-21 13:00:00 12 10 Este 19 Este 0 -- -- 69
2020-03-21 12:00:00 11.5 13 Sudeste 23 Este 0 -- -- 70
2020-03-21 11:00:00 10.6 17 Este 26 Este 0 -- -- 77
2020-03-21 10:00:00 9.5 18 Este 27 Este 0 -- -- 81
2020-03-21 09:00:00 7.9 17 Este 22 Este 0 -- -- 87
2020-03-21 08:00:00 6.8 18 Este 27 Este 0 -- -- 89
2020-03-21 07:00:00 6.8 23 Este 32 Este 0 -- -- 88
2020-03-21 06:00:00 6.6 23 Este 28 Este 0 -- -- 87
2020-03-21 05:00:00 7.1 24 Este 33 Este 0 -- -- 86
2020-03-21 04:00:00 7.2 23 Este 28 Este 0 -- -- 89
2020-03-21 03:00:00 7.4 18 Este 23 Este 0.2 -- -- 91
2020-03-21 02:00:00 6.6 17 Este 20 Este 0 -- -- 93
2020-03-21 01:00:00 7.7 16 Este 20 Este 0 -- -- 90
2020-03-21 00:00:00 8.1 16 Sudeste 18 Este 0 -- -- 89
2020-03-20 23:00:00 8.2 12 Sudeste 22 Sudeste 0 -- -- 90
2020-03-20 22:00:00 9.7 6 Este 12 Sudeste 0 -- -- 88
2020-03-20 21:00:00 10.1 0 Calma 5 Nordeste 0 -- -- 88
2020-03-20 20:00:00 10.5 0 Calma 6 Oeste 0 -- -- 86
2020-03-20 19:00:00 10.7 2 Oeste 10 Oeste 0 -- -- 85
2020-03-20 18:00:00 11 8 Sudoeste 17 Sudoeste 0 -- -- 85
2020-03-20 17:00:00 11.8 10 Sudeste 24 Sudeste 1 -- -- 81
2020-03-20 16:00:00 13.2 14 Sudeste 26 Este 0 -- -- 65
2020-03-20 15:00:00 13.5 19 Sudeste 29 Este 0 -- -- 64
2020-03-20 14:00:00 12.9 18 Sudeste 28 Sudeste 0 -- -- 65
2020-03-20 13:00:00 12.4 18 Sudeste 27 Sudeste 0 -- -- 70
2020-03-20 12:00:00 11.1 18 Este 28 Este 0 -- -- 74
2020-03-20 11:00:00 9.9 17 Este 31 Este 0 -- -- 79
2020-03-20 10:00:00 8.8 25 Este 36 Este 0 -- -- 82
2020-03-20 09:00:00 7.9 18 Este 28 Este 0 -- -- 85
2020-03-20 08:00:00 6.9 14 Este 21 Nordeste 0 -- -- 87
2020-03-20 07:00:00 7.4 14 Nordeste 25 Este 0 -- -- 86
2020-03-20 06:00:00 7.8 19 Este 23 Este 0.2 -- -- 86
2020-03-20 05:00:00 8.1 14 Este 22 Este 0 -- -- 80
2020-03-20 04:00:00 8.4 17 Sudeste 29 Sudeste 0 -- -- 79
2020-03-20 03:00:00 8.9 24 Sudeste 30 Sudeste 0 -- -- 77
2020-03-20 02:00:00 8.2 10 Este 23 Este 0 -- -- 81
2020-03-20 01:00:00 9.3 22 Este 24 Este 0 -- -- 69
2020-03-20 00:00:00 9.4 10 Sudeste 16 Sudeste 0 -- -- 79
2020-03-19 23:00:00 9.2 16 Sudeste 24 Este 0 -- -- 81
2020-03-19 22:00:00 10.5 19 Este 23 Este 0 -- -- 72
2020-03-19 21:00:00 11.1 11 Este 13 Este 0 -- -- 67
2020-03-19 20:00:00 12.6 3 Nordeste 5 Este 0 -- -- 62
2020-03-19 19:00:00 13.5 5 Este 10 Sudeste 0 -- -- 60
2020-03-19 18:00:00 14.2 9 Sudeste 20 Sudeste 0 -- -- 53
2020-03-19 17:00:00 14.7 15 Sudeste 20 Este 0 -- -- 47
2020-03-19 16:00:00 14.8 12 Este 18 Sudeste 0 -- -- 61
2020-03-19 15:00:00 14.9 12 Sudeste 21 Sudeste 0 -- -- 64
2020-03-19 14:00:00 15.2 14 Sudeste 19 Sudeste 0 -- -- 63
2020-03-19 13:00:00 15.1 10 Sudeste 19 Este 0 -- -- 64
2020-03-19 12:00:00 14 10 Este 20 Este 0 -- -- 70
2020-03-19 11:00:00 12.5 11 Este 17 Este 0 -- -- 74
2020-03-19 10:00:00 9.5 5 Norte 10 Norte 0 -- -- 85
2020-03-19 09:00:00 7 8 Nordeste 10 Nordeste 0 -- -- 91
2020-03-19 08:00:00 5.2 6 Norte 12 Nordeste 0 -- -- 90
2020-03-19 07:00:00 6.2 9 Nordeste 16 Nordeste 0 -- -- 88
2020-03-19 06:00:00 5.5 7 Norte 10 Norte 0 -- -- 90
2020-03-19 05:00:00 6.7 5 Nordeste 12 Nordeste 0 -- -- 90
2020-03-19 04:00:00 6.7 10 Nordeste 15 Nordeste 0 -- -- 89
2020-03-19 03:00:00 7.1 9 Norte 12 Norte 0 -- -- 87
2020-03-19 02:00:00 8 5 Nordeste 8 Noroeste 0 -- -- 87
2020-03-19 01:00:00 9.5 8 Nordeste 18 Este 0 -- -- 82
2020-03-19 00:00:00 9.8 7 Nordeste 9 Nordeste 0 -- -- 81
2020-03-18 23:00:00 11.7 0 Calma -- -- 0 -- -- 73
2020-03-18 22:00:00 12.9 0 Calma 4 Nordeste 0 -- -- 69
2020-03-18 21:00:00 14 0 Calma 2 Sur 0 -- -- 65
2020-03-18 20:00:00 14.1 3 Sur 8 Sudeste 0 -- -- 65
2020-03-18 19:00:00 15.8 4 Sudeste 10 Sudeste 0 -- -- 59
2020-03-18 18:00:00 16.8 10 Sudeste 15 Sudeste 0 -- -- 54
2020-03-18 17:00:00 17.1 8 Este 15 Sudeste 0 -- -- 51
2020-03-18 16:00:00 16.6 12 Sudeste 20 Este 0 -- -- 53
2020-03-18 15:00:00 16.1 11 Este 24 Este 0 -- -- 53
2020-03-18 14:00:00 15.6 14 Este 21 Este 0 -- -- 55
2020-03-18 13:00:00 14.5 12 Este 19 Este 0 -- -- 63
2020-03-18 12:00:00 13.4 15 Este 21 Este 0 -- -- 65
2020-03-18 11:00:00 11.8 14 Nordeste 19 Nordeste 0 -- -- 73
2020-03-18 10:00:00 9.6 10 Nordeste 15 Este 0 -- -- 84
2020-03-18 09:00:00 6.5 11 Nordeste 18 Este 0 -- -- 92
2020-03-18 08:00:00 4.5 10 Nordeste 15 Este 0 -- -- 92
2020-03-18 07:00:00 4.2 6 Nordeste 12 Nordeste 0 -- -- 92
2020-03-18 06:00:00 4.6 10 Nordeste 15 Nordeste 0 -- -- 91
2020-03-18 05:00:00 4.8 4 Norte 14 Este 0 -- -- 91
2020-03-18 04:00:00 5.4 9 Norte 18 Este 0 -- -- 91
2020-03-18 03:00:00 6.2 12 Nordeste 17 Nordeste 0 -- -- 89
2020-03-18 02:00:00 6.3 10 Nordeste 14 Norte 0 -- -- 91
2020-03-18 01:00:00 6.7 10 Nordeste 15 Nordeste 0 -- -- 90
2020-03-18 00:00:00 6.5 8 Norte 18 Nordeste 0 -- -- 87
2020-03-17 23:00:00 7.4 15 Nordeste 20 Nordeste 0 -- -- 87
2020-03-17 22:00:00 8 9 Norte 27 Este 0 -- -- 84
2020-03-17 21:00:00 8.5 18 Este 24 Este 0 -- -- 84
2020-03-17 20:00:00 9.5 10 Nordeste 24 Este 0 -- -- 80
2020-03-17 19:00:00 11.9 20 Este 34 Este 0 -- -- 71
2020-03-17 18:00:00 12.8 27 Este 39 Este 0 -- -- 68
2020-03-17 17:00:00 13.4 30 Este 44 Este 0 -- -- 63
2020-03-17 16:00:00 13.6 31 Este 54 Este 0 -- -- 63
2020-03-17 15:00:00 13.5 39 Este 55 Este 0 -- -- 63
2020-03-17 14:00:00 12.9 36 Este 58 Este 0 -- -- 64
2020-03-17 13:00:00 13.6 40 Este 51 Este 0 -- -- 61
2020-03-17 12:00:00 12.3 41 Este 56 Este 0 -- -- 65
2020-03-17 11:00:00 11.7 35 Este 51 Este 0 -- -- 65
2020-03-17 10:00:00 9.7 34 Este 45 Este 0 -- -- 69
2020-03-17 09:00:00 7.6 28 Nordeste 38 Este 0 -- -- 73
2020-03-17 08:00:00 5.8 23 Nordeste 30 Este 0 -- -- 77
2020-03-17 07:00:00 3.2 14 Este 23 Nordeste 0 -- -- 82
2020-03-17 06:00:00 3.4 20 Nordeste 23 Nordeste 0 -- -- 79
2020-03-17 05:00:00 2.9 13 Nordeste 19 Nordeste 0 -- -- 80
2020-03-17 04:00:00 2.5 17 Nordeste 24 Norte 0 -- -- 79
2020-03-17 03:00:00 1.6 9 Nordeste 21 Norte 0 -- -- 80
2020-03-17 02:00:00 3.5 18 Nordeste 25 Norte 0 -- -- 72
2020-03-17 01:00:00 4.4 23 Norte 41 Norte 0 -- -- 67
2020-03-17 00:00:00 5.5 30 Norte 43 Norte 0 -- -- 62
2020-03-16 23:00:00 5.9 39 Nordeste 58 Nordeste 0 -- -- 60
2020-03-16 22:00:00 5.7 39 Norte 51 Nordeste 0 -- -- 61
2020-03-16 21:00:00 4.9 23 Norte 50 Nordeste 0 -- -- 66
2020-03-16 20:00:00 6.3 47 Norte 65 Norte 0 -- -- 58
2020-03-16 19:00:00 7.3 52 Nordeste 67 Nordeste 0 -- -- 54
2020-03-16 18:00:00 8.3 45 Nordeste 62 Nordeste 0 -- -- 50
2020-03-16 17:00:00 9.2 50 Norte 63 Nordeste 0 -- -- 49
2020-03-16 16:00:00 9.4 50 Nordeste 67 Nordeste 0 -- -- 47
2020-03-16 15:00:00 9.1 48 Nordeste 59 Nordeste 0 -- -- 52
2020-03-16 14:00:00 8.8 51 Nordeste 65 Nordeste 0 -- -- 58
2020-03-16 13:00:00 7.6 36 Nordeste 55 Nordeste 0 -- -- 59
2020-03-16 12:00:00 6.4 24 Norte 39 Norte 0.2 -- -- 67
2020-03-16 11:00:00 5.2 22 Norte 31 Norte 0 -- -- 69
2020-03-16 10:00:00 4.3 17 Norte 29 Norte 0 -- -- 76
2020-03-16 09:00:00 3.9 23 Norte 31 Norte 0 -- -- 90
2020-03-16 08:00:00 2.4 11 Norte 17 Norte 0 -- -- 95
2020-03-16 07:00:00 2.3 14 Norte 18 Norte 0 -- -- 94
2020-03-16 06:00:00 2.2 12 Norte 28 Noroeste 0.2 -- -- 95
2020-03-16 05:00:00 1.4 10 Norte 16 Norte 0.2 -- -- 96
2020-03-16 04:00:00 0.9 14 Norte 20 Norte 0.4 -- -- 96
2020-03-16 03:00:00 0.3 17 Norte 27 Norte 0.4 -- -- 95
2020-03-16 02:00:00 0.9 21 Norte 36 Norte 0.4 -- -- 95
2020-03-16 01:00:00 0.9 30 Norte 37 Norte 0.2 -- -- 94
2020-03-16 00:00:00 1 22 Norte 36 Norte 0.6 -- -- 94
2020-03-15 23:00:00 0.8 25 Noroeste 49 Noroeste 1.2 -- -- 92
2020-03-15 22:00:00 2.6 33 Noroeste 61 Noroeste 0 -- -- 84
2020-03-15 21:00:00 5.9 35 Noroeste 55 Noroeste 0 -- -- 56
2020-03-15 20:00:00 6.8 32 Noroeste 54 Oeste 0 -- -- 64
2020-03-15 19:00:00 13.2 26 Sudoeste 38 Sudoeste 0 -- -- 38
2020-03-15 18:00:00 15 25 Sudoeste 42 Sudoeste 0 -- -- 38
2020-03-15 17:00:00 15.6 26 Sudoeste 49 Oeste 0 -- -- 36
2020-03-15 16:00:00 16.1 30 Sudoeste 48 Oeste 0 -- -- 36
2020-03-15 15:00:00 16.9 26 Sudoeste 48 Sudoeste 0 -- -- 32
2020-03-15 14:00:00 17.1 21 Sudoeste 35 Sudoeste 0 -- -- 37
2020-03-15 13:00:00 15.6 21 Sudoeste 30 Sur 0 -- -- 34
2020-03-15 12:00:00 12.7 15 Sur 22 Sur 0 -- -- 49
2020-03-15 11:00:00 9.4 10 Sur 15 Sudoeste 0 -- -- 58
2020-03-15 10:00:00 6.6 8 Sudoeste 12 Sudoeste 0 -- -- 70
2020-03-15 09:00:00 2.4 2 Noroeste 9 Sudeste 0 -- -- 80
2020-03-15 08:00:00 2.7 5 Sudeste 9 Sudeste 0 -- -- 78
2020-03-15 07:00:00 1.1 -- -- -- -- 0 -- -- 84
2020-03-15 06:00:00 0.8 8 Norte 10 Norte 0 -- -- 85
2020-03-15 05:00:00 1.3 6 Norte 10 Norte 0 -- -- 83
2020-03-15 04:00:00 1.9 4 Nordeste 9 Norte 0 -- -- 82
2020-03-15 03:00:00 3 4 Norte 9 Norte 0 -- -- 75
2020-03-15 02:00:00 3.5 8 Norte 9 Norte 0 -- -- 72
2020-03-15 01:00:00 5.8 6 Norte 7 Norte 0 -- -- 62
2020-03-15 00:00:00 8.2 3 Norte 18 Sudeste 0 -- -- 52
2020-03-14 23:00:00 8.6 17 Sudeste 20 Sudeste 0 -- -- 52
2020-03-14 22:00:00 9.6 18 Sudeste 19 Sudeste 0 -- -- 48
2020-03-14 21:00:00 10 16 Sudeste 17 Sudeste 0 -- -- 45
2020-03-14 20:00:00 11.5 14 Sudeste 15 Sudeste 0 -- -- 40
2020-03-14 19:00:00 15.3 10 Sudeste 13 Sur 0 -- -- 34
2020-03-14 18:00:00 16.7 8 Sur 16 Sur 0 -- -- 27
2020-03-14 17:00:00 16.7 9 Sur 21 Sudeste 0 -- -- 29
2020-03-14 16:00:00 16.3 9 Sur 21 Sur 0 -- -- 36
2020-03-14 15:00:00 15.9 9 Sudeste 17 Sudeste 0 -- -- 39
2020-03-14 14:00:00 14.2 8 Sudoeste 19 Sudeste 0 -- -- 50
2020-03-14 13:00:00 12.2 6 Sur 12 Sudoeste 0 -- -- 56
2020-03-14 12:00:00 10.4 4 Sur 8 Sur 0 -- -- 63
2020-03-14 11:00:00 7.7 2 Este 9 Noroeste 0 -- -- 74
2020-03-14 10:00:00 4.7 3 Norte 5 Nordeste 0 -- -- 92
2020-03-14 09:00:00 0.7 3 Nordeste 6 Norte 0 -- -- 93
2020-03-14 08:00:00 0.2 4 Norte 4 Norte 0 -- -- 90
2020-03-14 07:00:00 0.8 0 Calma 4 Noroeste 0 -- -- 89
2020-03-14 06:00:00 2 0 Calma 4 Nordeste 0 -- -- 89
2020-03-14 05:00:00 2.2 4 Norte 7 Nordeste 0 -- -- 89
2020-03-14 04:00:00 2.7 0 Calma 5 Norte 0 -- -- 80
2020-03-14 03:00:00 4.6 0 Calma 3 Nordeste 0 -- -- 79
2020-03-14 02:00:00 4.8 2 Este 4 Este 0 -- -- 80
2020-03-14 01:00:00 5.2 0 Calma 5 Sudeste 0 -- -- 78
2020-03-14 00:00:00 5.2 4 Nordeste 10 Noroeste 0 -- -- 81
2020-03-13 23:00:00 6.1 5 Norte 30 Sudeste 0 -- -- 78
2020-03-13 22:00:00 7 22 Sudeste 32 Este 0 -- -- 77
2020-03-13 21:00:00 8.3 23 Este 35 Sudeste 0 -- -- 73
2020-03-13 20:00:00 9.9 21 Sudeste 31 Sudeste 0 -- -- 68
2020-03-13 19:00:00 12.6 19 Sudeste 26 Sudeste 0 -- -- 59
2020-03-13 18:00:00 14.6 16 Sudeste 21 Sudeste 0 -- -- 53
2020-03-13 17:00:00 14.9 5 Este 14 Norte 0 -- -- 51
2020-03-13 16:00:00 14.6 8 Norte 20 Norte 0 -- -- 53
2020-03-13 15:00:00 14.4 8 Norte 23 Nordeste 0 -- -- 52
2020-03-13 14:00:00 13.9 10 Este 24 Nordeste 0 -- -- 53
2020-03-13 13:00:00 12.7 16 Este 32 Este 0 -- -- 56
2020-03-13 12:00:00 11.8 22 Nordeste 34 Este 0 -- -- 59
2020-03-13 11:00:00 10.8 24 Nordeste 36 Nordeste 0 -- -- 61
2020-03-13 10:00:00 9.6 27 Nordeste 37 Nordeste 0 -- -- 66
2020-03-13 09:00:00 8.3 21 Nordeste 29 Nordeste 0 -- -- 72
2020-03-13 08:00:00 7.3 17 Nordeste 32 Nordeste 0 -- -- 77
2020-03-13 07:00:00 7.8 23 Este 32 Este 0 -- -- 76
2020-03-13 06:00:00 7.6 25 Este 31 Este 0 -- -- 78
2020-03-13 05:00:00 7.2 18 Este 26 Este 0 -- -- 81
2020-03-13 04:00:00 6.8 17 Este 21 Este 0 -- -- 84
2020-03-13 03:00:00 5.5 14 Este 16 Nordeste 0 -- -- 86
2020-03-13 02:00:00 6.1 11 Este 28 Este 0 -- -- 84
2020-03-13 01:00:00 7.3 23 Este 31 Este 0 -- -- 81
2020-03-13 00:00:00 7.6 16 Este 26 Este 0 -- -- 81
2020-03-12 23:00:00 9.4 22 Este 30 Este 0 -- -- 74
2020-03-12 22:00:00 10.1 24 Este 33 Este 0 -- -- 75
2020-03-12 21:00:00 10.9 22 Este 37 Este 0 -- -- 76
2020-03-12 20:00:00 12.5 26 Este 42 Este 0 -- -- 70
2020-03-12 19:00:00 15 26 Este 35 Este 0 -- -- 65
2020-03-12 18:00:00 16.9 19 Este 27 Este 0 -- -- 58
2020-03-12 17:00:00 18.2 18 Sudeste 24 Sudeste 0 -- -- 54
2020-03-12 16:00:00 18.8 15 Sudeste 21 Sudeste 0 -- -- 51
2020-03-12 15:00:00 19.9 15 Sudeste 19 Sur 0 -- -- 47
2020-03-12 14:00:00 18.9 8 Sudeste 15 Este 0 -- -- 50
2020-03-12 13:00:00 17.2 8 Este 13 Este 0 -- -- 54
2020-03-12 12:00:00 15.5 6 Este 11 Este 0 -- -- 62
2020-03-12 11:00:00 12.6 5 Norte 8 Noroeste 0 -- -- 69
2020-03-12 10:00:00 9.4 5 Nordeste 8 Norte 0 -- -- 83
2020-03-12 09:00:00 6.5 6 Norte 9 Noroeste 0 -- -- 85
2020-03-12 08:00:00 6.3 5 Nordeste 8 Norte 0 -- -- 87
2020-03-12 07:00:00 6.5 6 Norte 9 Norte 0 -- -- 84
2020-03-12 06:00:00 6.8 6 Norte 9 Norte 0 -- -- 82
2020-03-12 05:00:00 6.8 9 Norte 12 Norte 0 -- -- 83
2020-03-12 04:00:00 7.4 7 Norte 10 Norte 0 -- -- 79
2020-03-12 03:00:00 8.6 6 Norte 9 Norte 0 -- -- 74
2020-03-12 02:00:00 11.8 3 Sudoeste 8 Sudoeste 0 -- -- 61
2020-03-12 01:00:00 13 4 Sur 9 Sur 0 -- -- 58
2020-03-12 00:00:00 12.9 0 Calma 15 Sur 0 -- -- 57
2020-03-11 23:00:00 15.4 11 Sudoeste 18 Sudoeste 0 -- -- 49
2020-03-11 22:00:00 15.8 14 Sudoeste 19 Sudoeste 0 -- -- 49
2020-03-11 21:00:00 17.3 17 Sudoeste 23 Sudoeste 0 -- -- 45
2020-03-11 20:00:00 18.4 15 Sudoeste 28 Sudoeste 0 -- -- 42
2020-03-11 19:00:00 20.3 21 Sudoeste 34 Sudoeste 0 -- -- 36
2020-03-11 18:00:00 22.3 15 Sudoeste 33 Este 0 -- -- 31
2020-03-11 17:00:00 21.4 13 Sudeste 20 Sudoeste 0 -- -- 36
2020-03-11 16:00:00 21 10 Sur 22 Sur 0 -- -- 36
2020-03-11 15:00:00 19.7 9 Oeste 23 Sudoeste 0 -- -- 37
2020-03-11 14:00:00 18.7 9 Sur 21 Sudeste 0 -- -- 42
2020-03-11 13:00:00 17.2 10 Sur 18 Sur 0 -- -- 47
2020-03-11 12:00:00 15 3 Oeste 9 Sudoeste 0 -- -- 52
2020-03-11 11:00:00 12 6 Norte 12 Norte 0 -- -- 61
2020-03-11 10:00:00 7.6 7 Norte 11 Norte 0 -- -- 72
2020-03-11 09:00:00 4.4 5 Norte 8 Norte 0 -- -- 78
2020-03-11 08:00:00 3.7 3 Nordeste 8 Norte 0 -- -- 80
2020-03-11 07:00:00 4.1 0 Calma 9 Norte 0 -- -- 78
2020-03-11 06:00:00 4.5 6 Norte 8 Norte 0 -- -- 75
2020-03-11 05:00:00 6.7 6 Norte 11 Norte 0 -- -- 77
2020-03-11 04:00:00 8.3 9 Nordeste 10 Nordeste 0 -- -- 69
2020-03-11 03:00:00 10.8 5 Noroeste 8 Noroeste 0 -- -- 57
2020-03-11 02:00:00 11.1 5 Oeste 9 Sur 0 -- -- 50
2020-03-11 01:00:00 11.4 4 Sur 6 Sudeste 0 -- -- 46
2020-03-11 00:00:00 11.3 3 Sur 13 Sudoeste 0 -- -- 47
2020-03-10 23:00:00 11.7 10 Sudoeste 14 Sudoeste 0 -- -- 53
2020-03-10 22:00:00 13.7 8 Sur 13 Sur 0 -- -- 44
2020-03-10 21:00:00 15.2 3 Este 12 Sudeste 0 -- -- 48
2020-03-10 20:00:00 16 13 Sudeste 15 Sudeste 0 -- -- 49
2020-03-10 19:00:00 18.9 8 Sudeste 12 Sudeste 0 -- -- 39
2020-03-10 18:00:00 20.7 9 Sudoeste 14 Sur 0 -- -- 32
2020-03-10 17:00:00 20.2 7 Oeste 13 Sudoeste 0 -- -- 34
2020-03-10 16:00:00 19.2 8 Sudoeste 21 Sur 0 -- -- 42
2020-03-10 15:00:00 17.9 9 Sur 15 Sudoeste 0 -- -- 44
2020-03-10 14:00:00 16.4 5 Oeste 12 Oeste 0 -- -- 49
2020-03-10 13:00:00 14.4 3 Nordeste 12 Sur 0 -- -- 53
2020-03-10 12:00:00 12.4 9 Sur 15 Sur 0 -- -- 61
2020-03-10 11:00:00 10.6 3 Sudeste 10 Norte 0 -- -- 62
2020-03-10 10:00:00 7.6 3 Sur 6 Sur 0 -- -- 77
2020-03-10 09:00:00 4 4 Norte 6 Norte 0 -- -- 82
2020-03-10 08:00:00 4.5 5 Norte 8 Nordeste 0 -- -- 77
2020-03-10 07:00:00 6.5 2 Este 3 Este 0 -- -- 69
2020-03-10 06:00:00 6.3 0 Calma 6 Sudoeste 0 -- -- 71
2020-03-10 05:00:00 6 6 Sudoeste 9 Sudoeste 0 -- -- 73
2020-03-10 04:00:00 6.8 5 Sudoeste 8 Sur 0 -- -- 68
2020-03-10 03:00:00 7 3 Norte 8 Sudoeste 0 -- -- 66
2020-03-10 02:00:00 7 7 Norte 10 Norte 0 -- -- 65
2020-03-10 01:00:00 8 0 Calma 9 Sur 0 -- -- 62
2020-03-10 00:00:00 8.5 6 Nordeste 13 Norte 0 -- -- 60
2020-03-09 23:00:00 8.4 8 Nordeste 14 Noroeste 0 -- -- 61
2020-03-09 22:00:00 9.4 11 Noroeste 21 Noroeste 0 -- -- 56
2020-03-09 21:00:00 10.7 12 Noroeste 17 Noroeste 0 -- -- 49
2020-03-09 20:00:00 12.3 7 Noroeste 17 Noroeste 0 -- -- 45
2020-03-09 19:00:00 14.6 15 Noroeste 26 Noroeste 0 -- -- 38
2020-03-09 18:00:00 16.1 15 Noroeste 22 Noroeste 0 -- -- 32
2020-03-09 17:00:00 16.3 17 Noroeste 27 Noroeste 0 -- -- 29
2020-03-09 16:00:00 15.7 15 Noroeste 29 Oeste 0 -- -- 29
2020-03-09 15:00:00 14.5 13 Noroeste 27 Oeste 0 -- -- 31
2020-03-09 14:00:00 13 10 Noroeste 28 Noroeste 0 -- -- 35
2020-03-09 13:00:00 11.3 13 Noroeste 21 Noroeste 0 -- -- 46
2020-03-09 12:00:00 9.9 14 Noroeste 23 Noroeste 0 -- -- 52
2020-03-09 11:00:00 8.4 18 Noroeste 28 Noroeste 0 -- -- 59
2020-03-09 10:00:00 6.4 19 Noroeste 27 Norte 0 -- -- 71
2020-03-09 09:00:00 3.9 12 Noroeste 19 Noroeste 0 -- -- 81
2020-03-09 08:00:00 2.8 13 Noroeste 22 Noroeste 0 -- -- 80
2020-03-09 07:00:00 3.5 4 Noroeste 8 Sudoeste 0 -- -- 75
2020-03-09 06:00:00 3.9 3 Noroeste 14 Oeste 0 -- -- 74
2020-03-09 05:00:00 4.4 10 Oeste 25 Oeste 0 -- -- 73
2020-03-09 04:00:00 5.4 15 Oeste 26 Oeste 0 -- -- 70
2020-03-09 03:00:00 5.7 13 Oeste 26 Oeste 0 -- -- 69
2020-03-09 02:00:00 6.2 10 Oeste 29 Oeste 0 -- -- 67
2020-03-09 01:00:00 6.9 18 Oeste 37 Oeste 0 -- -- 64
2020-03-09 00:00:00 7.5 24 Oeste 40 Oeste 0 -- -- 64
2020-03-08 23:00:00 7.7 22 Oeste 36 Oeste 0 -- -- 65
2020-03-08 22:00:00 8.8 19 Noroeste 29 Noroeste 0 -- -- 64
2020-03-08 21:00:00 9.7 19 Noroeste 44 Noroeste 0 -- -- 59
2020-03-08 20:00:00 10.8 34 Noroeste 47 Noroeste 0 -- -- 54
2020-03-08 19:00:00 12.4 26 Noroeste 42 Oeste 0 -- -- 47
2020-03-08 18:00:00 13.5 32 Oeste 47 Oeste 0 -- -- 49
2020-03-08 17:00:00 13.9 34 Noroeste 52 Oeste 0 -- -- 48
2020-03-08 16:00:00 14.3 33 Noroeste 45 Noroeste 0 -- -- 52
2020-03-08 15:00:00 13 14 Sudoeste 24 Sudoeste 0 -- -- 59
2020-03-08 14:00:00 11.2 13 Sudoeste 21 Sudoeste 0 -- -- 64
2020-03-08 13:00:00 8.8 18 Sudoeste 24 Sudoeste 0 -- -- 72
2020-03-08 12:00:00 8.2 15 Sudoeste 20 Sudoeste 0 -- -- 72
2020-03-08 11:00:00 7.5 9 Sudoeste 15 Sur 0 -- -- 77
2020-03-08 10:00:00 4.8 8 Sudoeste 15 Sur 0 -- -- 89
2020-03-08 09:00:00 2.5 4 Sudoeste 10 Sudoeste 0 -- -- 89
2020-03-08 08:00:00 2.8 6 Sur 9 Sudoeste 0 -- -- 90
2020-03-08 07:00:00 1.5 3 Sudeste 6 Norte 0 -- -- 92
2020-03-08 06:00:00 0.4 5 Norte 7 Norte 0 -- -- 91
2020-03-08 05:00:00 0 6 Norte 9 Norte 0 -- -- 89
2020-03-08 04:00:00 2.3 5 Noroeste 9 Noroeste 0 -- -- 81
2020-03-08 03:00:00 3.6 6 Este 9 Este 0 -- -- 86
2020-03-08 02:00:00 3.6 8 Norte 12 Sur 0 -- -- 82
2020-03-08 01:00:00 5.2 10 Sur 13 Sur 0 -- -- 78
2020-03-08 00:00:00 5.9 10 Sudoeste 18 Sur 0 -- -- 77
2020-03-07 23:00:00 6.8 14 Sur 20 Sur 0 -- -- 73
2020-03-07 22:00:00 7.7 14 Sur 17 Sudoeste 0 -- -- 70
2020-03-07 21:00:00 8.9 14 Sur 21 Sudeste 0 -- -- 68
2020-03-07 20:00:00 9.9 18 Sudeste 24 Sudeste 0 -- -- 63
2020-03-07 19:00:00 12.6 15 Sur 21 Sur 0 -- -- 55
2020-03-07 18:00:00 14 13 Sur 23 Sur 0 -- -- 46
2020-03-07 17:00:00 14.3 18 Sudoeste 28 Sudoeste 0 -- -- 43
2020-03-07 16:00:00 13.6 14 Sudoeste 27 Sudoeste 0 -- -- 44
2020-03-07 15:00:00 13.1 12 Oeste 27 Sudoeste 0 -- -- 41
2020-03-07 14:00:00 12.2 11 Sudoeste 19 Sudoeste 0 -- -- 46
2020-03-07 13:00:00 10.9 8 Oeste 20 Noroeste 0 -- -- 52
2020-03-07 12:00:00 9.6 10 Norte 21 Noroeste 0 -- -- 57
2020-03-07 11:00:00 8.3 15 Noroeste 21 Norte 0 -- -- 65
2020-03-07 10:00:00 6.9 19 Noroeste 26 Norte 0 -- -- 75
2020-03-07 09:00:00 4.7 14 Noroeste 23 Noroeste 0 -- -- 85
2020-03-07 08:00:00 3.9 14 Noroeste 22 Noroeste 0 -- -- 87
2020-03-07 07:00:00 2.8 8 Noroeste 12 Noroeste 0 -- -- 85
2020-03-07 06:00:00 2.8 6 Noroeste 12 Oeste 0 -- -- 81
2020-03-07 05:00:00 3.4 5 Noroeste 10 Noroeste 0 -- -- 81
2020-03-07 04:00:00 3.3 9 Oeste 15 Oeste 0 -- -- 79
2020-03-07 03:00:00 3.2 6 Oeste 12 Oeste 0 -- -- 76
2020-03-07 02:00:00 3 8 Sudoeste 13 Oeste 0 -- -- 72
2020-03-07 01:00:00 3.5 6 Sudoeste 18 Oeste 0 -- -- 66
2020-03-07 00:00:00 3.4 10 Oeste 14 Oeste 0 -- -- 62
2020-03-06 23:00:00 4 8 Oeste 18 Oeste 0 -- -- 58
2020-03-06 22:00:00 4.1 9 Sudoeste 25 Noroeste 0 -- -- 61
2020-03-06 21:00:00 5.4 19 Noroeste 30 Noroeste 0 -- -- 47
2020-03-06 20:00:00 5.8 19 Noroeste 39 Oeste 0 -- -- 53
2020-03-06 19:00:00 7.4 25 Noroeste 57 Noroeste 0 -- -- 44
2020-03-06 18:00:00 8.3 40 Noroeste 60 Noroeste 0 -- -- 40
2020-03-06 17:00:00 8.7 41 Noroeste 58 Noroeste 0 -- -- 41
2020-03-06 16:00:00 9.1 32 Noroeste 59 Noroeste 0 -- -- 47
2020-03-06 15:00:00 9.6 45 Noroeste 65 Noroeste 0 -- -- 37
2020-03-06 14:00:00 8.6 36 Noroeste 63 Noroeste 0 -- -- 42
2020-03-06 13:00:00 7.6 38 Noroeste 55 Noroeste 0 -- -- 53
2020-03-06 12:00:00 6.8 38 Noroeste 52 Noroeste 0 -- -- 59
2020-03-06 11:00:00 6.1 36 Noroeste 56 Oeste 0 -- -- 59
2020-03-06 10:00:00 4.8 37 Noroeste 58 Oeste 0 -- -- 70
2020-03-06 09:00:00 3.7 30 Oeste 45 Oeste 0 -- -- 72
2020-03-06 08:00:00 3.1 27 Oeste 40 Oeste 0 -- -- 78
2020-03-06 07:00:00 3.4 26 Oeste 45 Oeste 0 -- -- 74
2020-03-06 06:00:00 3.6 31 Oeste 44 Oeste 0 -- -- 74
2020-03-06 05:00:00 3.4 24 Oeste 50 Oeste 0 -- -- 78
2020-03-06 04:00:00 3.8 23 Oeste 32 Oeste 0 -- -- 80
2020-03-06 03:00:00 3.9 20 Oeste 36 Sudoeste 0 -- -- 86
2020-03-06 02:00:00 4.4 25 Sudoeste 33 Sudoeste 0 -- -- 83
2020-03-06 01:00:00 4.1 20 Sudoeste 27 Sudoeste 0 -- -- 80
2020-03-06 00:00:00 3.9 12 Sudoeste 17 Sudoeste 0 -- -- 78
2020-03-05 23:00:00 4.5 11 Oeste 24 Oeste 0 -- -- 73
2020-03-05 22:00:00 5.5 19 Oeste 36 Noroeste 0 -- -- 70
2020-03-05 21:00:00 5.7 21 Noroeste 40 Oeste 0 -- -- 70
2020-03-05 20:00:00 6.8 24 Oeste 50 Noroeste 0 -- -- 67
2020-03-05 19:00:00 8.6 34 Noroeste 51 Oeste 0 -- -- 58
2020-03-05 18:00:00 9.7 33 Oeste 61 Oeste 0 -- -- 59
2020-03-05 17:00:00 11.2 33 Noroeste 62 Oeste 0 -- -- 54
2020-03-05 16:00:00 11.3 42 Noroeste 61 Noroeste 0 -- -- 52
2020-03-05 15:00:00 11.7 34 Oeste 53 Noroeste 0 -- -- 55
2020-03-05 14:00:00 11.8 37 Noroeste 55 Oeste 0 -- -- 57
2020-03-05 13:00:00 11.2 36 Oeste 63 Oeste 0 -- -- 59
2020-03-05 12:00:00 9.7 23 Oeste 55 Oeste 0 -- -- 66
2020-03-05 11:00:00 9.6 37 Oeste 57 Oeste 0.2 -- -- 60
2020-03-05 10:00:00 8.9 31 Oeste 48 Oeste 0 -- -- 68
2020-03-05 09:00:00 8.3 20 Oeste 52 Noroeste 0 -- -- 76
2020-03-05 08:00:00 9.8 36 Oeste 54 Sudoeste 1.2 -- -- 91
2020-03-05 07:00:00 9.8 32 Sudoeste 49 Sudoeste 0 -- -- 89
2020-03-05 06:00:00 10.1 27 Sudoeste 50 Sudoeste 0 -- -- 87
2020-03-05 05:00:00 10.4 30 Sudoeste 54 Sudoeste 0 -- -- 87
2020-03-05 04:00:00 10.5 31 Sudoeste 45 Sudoeste 0 -- -- 87
2020-03-05 03:00:00 10.9 24 Sudoeste 50 Sudoeste 0 -- -- 85
2020-03-05 02:00:00 10.6 30 Sudoeste 47 Sudoeste 0 -- -- 91
2020-03-05 01:00:00 10.8 27 Sudoeste 44 Sudoeste 0 -- -- 88
2020-03-05 00:00:00 10.8 31 Sudoeste 44 Sudoeste 0 -- -- 86
2020-03-04 23:00:00 11 26 Sudoeste 37 Sudoeste 0 -- -- 85
2020-03-04 22:00:00 11.1 24 Sudoeste 39 Sudoeste 0 -- -- 82
2020-03-04 21:00:00 11.5 24 Sudoeste 42 Sudoeste 0 -- -- 78
2020-03-04 20:00:00 12.4 29 Sudoeste 40 Sudoeste 0 -- -- 72
2020-03-04 19:00:00 13.1 22 Oeste 44 Sudoeste 0 -- -- 69
2020-03-04 18:00:00 14 29 Sudoeste 46 Sudoeste 0 -- -- 65
2020-03-04 17:00:00 14.6 29 Sudoeste 45 Sudoeste 0 -- -- 65
2020-03-04 16:00:00 14.8 32 Sudoeste 42 Sudoeste 0 -- -- 64
2020-03-04 15:00:00 15.2 23 Sudoeste 35 Sudoeste 0 -- -- 59
2020-03-04 14:00:00 14.7 17 Oeste 25 Oeste 0 -- -- 58
2020-03-04 13:00:00 14 16 Oeste 27 Oeste 0 -- -- 61
2020-03-04 12:00:00 13.2 17 Sudoeste 25 Sudoeste 0 -- -- 64
2020-03-04 11:00:00 11.9 12 Sudoeste 27 Oeste 0 -- -- 69
2020-03-04 10:00:00 10.8 17 Oeste 28 Oeste 0 -- -- 79
2020-03-04 09:00:00 9.6 20 Sudoeste 27 Sudoeste 0 -- -- 83
2020-03-04 08:00:00 9.2 16 Sudoeste 20 Sudoeste 0 -- -- 86
2020-03-04 07:00:00 9.2 15 Sur 23 Oeste 0 -- -- 88
2020-03-04 06:00:00 9.8 16 Sudoeste 22 Sudoeste 0 -- -- 88
2020-03-04 05:00:00 10.4 13 Sudoeste 24 Sudoeste 0 -- -- 87
2020-03-04 04:00:00 10.5 15 Sudoeste 23 Sudoeste 0 -- -- 86
2020-03-04 03:00:00 10 8 Sudoeste 16 Sur 0 -- -- 85
2020-03-04 02:00:00 9.8 13 Sur 17 Sur 0 -- -- 82
2020-03-04 01:00:00 9.5 5 Sur 11 Oeste 0 -- -- 72
2020-03-04 00:00:00 9.8 8 Oeste 15 Noroeste 0 -- -- 71